createdAt,value
2018-04-14T00:00:25.943Z,10.53
2018-04-14T00:01:35.054Z,10.51
2018-04-14T00:02:43.878Z,10.11
2018-04-14T00:03:52.710Z,10.14
2018-04-14T00:05:01.541Z,9.99
2018-04-14T00:06:10.382Z,10.01
2018-04-14T00:07:19.626Z,10.45
2018-04-14T00:08:29.010Z,10.34
2018-04-14T00:09:38.117Z,10.27
2018-04-14T00:10:46.948Z,10.11
2018-04-14T00:11:55.779Z,10.3
2018-04-14T00:13:04.710Z,10.22
2018-04-14T00:14:13.542Z,10.45
2018-04-14T00:15:22.381Z,10.17
2018-04-14T00:16:31.483Z,10.25
2018-04-14T00:17:40.594Z,10.26
2018-04-14T00:18:50.002Z,10.07
2018-04-14T00:19:59.113Z,10.36
2018-04-14T00:21:08.219Z,10.23
2018-04-14T00:22:17.327Z,10.17
2018-04-14T00:23:26.441Z,10.15
2018-04-14T00:24:35.263Z,10.2
2018-04-14T00:25:44.097Z,9.94
2018-04-14T00:26:52.927Z,10.15
2018-04-14T00:28:02.034Z,10.22
2018-04-14T00:29:10.872Z,10.07
2018-04-14T00:30:19.976Z,10.09
2018-04-14T00:31:29.078Z,10.01
2018-04-14T00:32:37.914Z,10.22
2018-04-14T00:33:46.748Z,10.45
2018-04-14T00:34:55.573Z,10.4
2018-04-14T00:36:04.685Z,10.55
2018-04-14T00:37:13.517Z,10.52
2018-04-14T00:38:22.350Z,10.53
2018-04-14T00:39:31.182Z,10.32
2018-04-14T00:40:40.015Z,10.36
2018-04-14T00:41:48.847Z,10.05
2018-04-14T00:42:57.677Z,10.34
2018-04-14T00:44:06.507Z,10.27
2018-04-14T00:45:15.340Z,10.12
2018-04-14T00:46:24.170Z,10.08
2018-04-14T00:47:33.002Z,10.23
2018-04-14T00:48:41.833Z,10.27
2018-04-14T00:49:50.667Z,10.02
2018-04-14T00:50:59.497Z,10.07
2018-04-14T00:52:08.607Z,10.11
2018-04-14T00:53:17.593Z,10.79
2018-04-14T00:54:26.697Z,10.36
2018-04-14T00:55:35.811Z,10.2
2018-04-14T00:56:44.925Z,10.36
2018-04-14T00:57:54.028Z,10.2
2018-04-14T00:59:02.910Z,10.05
2018-04-14T01:00:11.743Z,9.96
2018-04-14T01:01:20.572Z,10.23
2018-04-14T01:02:29.964Z,10.22
2018-04-14T01:03:38.798Z,10.04
2018-04-14T01:04:47.629Z,10.2
2018-04-14T01:05:56.460Z,10.01
2018-04-14T01:07:05.571Z,9.87
2018-04-14T01:08:14.675Z,9.76
2018-04-14T01:09:23.506Z,9.78
2018-04-14T01:10:32.390Z,9.79
2018-04-14T01:11:41.223Z,9.78
2018-04-14T01:12:50.056Z,10.3
2018-04-14T01:13:58.889Z,9.9
2018-04-14T01:15:07.994Z,10.2
2018-04-14T01:16:17.130Z,9.9
2018-04-14T01:17:26.239Z,10.08
2018-04-14T01:18:35.345Z,9.94
2018-04-14T01:19:44.178Z,9.89
2018-04-14T01:20:53.011Z,10.05
2018-04-14T01:22:01.895Z,9.89
2018-04-14T01:23:10.731Z,9.93
2018-04-14T01:24:19.836Z,9.78
2018-04-14T01:25:28.941Z,9.79
2018-04-14T01:26:38.050Z,9.78
2018-04-14T01:27:46.884Z,9.61
2018-04-14T01:28:55.714Z,9.66
2018-04-14T01:30:04.547Z,9.76
2018-04-14T01:31:13.381Z,9.66
2018-04-14T01:32:22.537Z,9.64
2018-04-14T01:33:32.108Z,9.75
2018-04-14T01:34:40.936Z,9.68
2018-04-14T01:35:49.771Z,9.65
2018-04-14T01:36:58.876Z,9.71
2018-04-14T01:38:07.981Z,9.69
2018-04-14T01:39:16.870Z,9.78
2018-04-14T01:40:25.695Z,9.94
2018-04-14T01:41:34.528Z,9.78
2018-04-14T01:42:43.361Z,9.61
2018-04-14T01:43:52.194Z,9.65
2018-04-14T01:45:01.608Z,9.76
2018-04-14T01:46:10.440Z,9.76
2018-04-14T01:47:19.821Z,9.66
2018-04-14T01:48:28.931Z,9.69
2018-04-14T01:49:37.761Z,9.69
2018-04-14T01:50:46.641Z,10.04
2018-04-14T01:51:55.475Z,9.71
2018-04-14T01:53:04.311Z,9.65
2018-04-14T01:54:13.140Z,9.61
2018-04-14T01:55:21.967Z,9.66
2018-04-14T01:56:30.795Z,9.65
2018-04-14T01:57:39.908Z,9.96
2018-04-14T01:58:48.736Z,9.93
2018-04-14T01:59:57.566Z,9.78
2018-04-14T02:01:06.400Z,9.61
2018-04-14T02:02:15.533Z,9.76
2018-04-14T02:03:24.367Z,9.71
2018-04-14T02:04:33.475Z,9.79
2018-04-14T02:05:42.307Z,9.66
2018-04-14T02:06:51.140Z,9.65
2018-04-14T02:08:00.241Z,9.61
2018-04-14T02:09:09.069Z,9.56
2018-04-14T02:10:18.172Z,9.54
2018-04-14T02:11:27.004Z,9.68
2018-04-14T02:12:35.837Z,9.76
2018-04-14T02:13:45.269Z,9.68
2018-04-14T02:14:54.102Z,9.76
2018-04-14T02:16:02.943Z,9.79
2018-04-14T02:17:11.772Z,9.94
2018-04-14T02:18:20.602Z,9.78
2018-04-14T02:19:29.486Z,9.81
2018-04-14T02:20:38.317Z,9.78
2018-04-14T02:21:47.424Z,9.81
2018-04-14T02:22:56.255Z,9.65
2018-04-14T02:24:05.093Z,9.68
2018-04-14T02:25:14.122Z,9.72
2018-04-14T02:26:22.957Z,9.69
2018-04-14T02:27:32.338Z,10.01
2018-04-14T02:28:41.172Z,9.79
2018-04-14T02:29:50.001Z,10.26
2018-04-14T02:30:58.834Z,9.96
2018-04-14T02:32:07.955Z,9.9
2018-04-14T02:33:16.790Z,9.79
2018-04-14T02:34:25.895Z,9.61
2018-04-14T02:35:35.295Z,9.64
2018-04-14T02:36:44.401Z,9.65
2018-04-14T02:37:53.234Z,9.57
2018-04-14T02:39:02.069Z,9.94
2018-04-14T02:40:10.915Z,9.79
2018-04-14T02:41:19.750Z,9.66
2018-04-14T02:42:28.959Z,9.71
2018-04-14T02:43:38.069Z,9.51
2018-04-14T02:44:46.905Z,9.51
2018-04-14T02:45:55.734Z,9.48
2018-04-14T02:47:04.851Z,9.57
2018-04-14T02:48:14.112Z,9.39
2018-04-14T02:49:23.497Z,9.48
2018-04-14T02:50:32.322Z,9.57
2018-04-14T02:51:41.154Z,9.48
2018-04-14T02:52:50.261Z,9.53
2018-04-14T02:53:59.367Z,9.47
2018-04-14T02:55:08.790Z,9.43
2018-04-14T02:56:17.625Z,9.32
2018-04-14T02:57:27.289Z,9.35
2018-04-14T02:58:36.124Z,9.28
2018-04-14T02:59:45.225Z,9.4
2018-04-14T03:00:54.334Z,9.24
2018-04-14T03:02:03.165Z,9.23
2018-04-14T03:03:12.553Z,9.36
2018-04-14T03:04:21.385Z,9.4
2018-04-14T03:05:30.596Z,9.36
2018-04-14T03:06:39.713Z,9.33
2018-04-14T03:07:48.541Z,9.33
2018-04-14T03:08:57.375Z,9.28
2018-04-14T03:10:06.204Z,9.29
2018-04-14T03:11:15.475Z,9.47
2018-04-14T03:12:24.576Z,9.4
2018-04-14T03:13:33.412Z,9.43
2018-04-14T03:14:42.243Z,9.43
2018-04-14T03:15:51.077Z,9.48
2018-04-14T03:16:59.959Z,9.43
2018-04-14T03:18:08.793Z,9.4
2018-04-14T03:19:17.896Z,9.43
2018-04-14T03:20:26.724Z,9.31
2018-04-14T03:21:35.558Z,9.23
2018-04-14T03:22:44.385Z,9.26
2018-04-14T03:23:53.220Z,9.18
2018-04-14T03:25:02.055Z,9.33
2018-04-14T03:26:10.892Z,9.36
2018-04-14T03:27:19.719Z,9.35
2018-04-14T03:28:28.603Z,9.35
2018-04-14T03:29:37.708Z,9.32
2018-04-14T03:30:46.542Z,9.23
2018-04-14T03:31:55.920Z,9.23
2018-04-14T03:33:04.756Z,9.26
2018-04-14T03:34:13.982Z,9.39
2018-04-14T03:35:22.812Z,9.29
2018-04-14T03:36:31.644Z,9.4
2018-04-14T03:37:40.483Z,9.23
2018-04-14T03:38:49.871Z,9.15
2018-04-14T03:39:59.077Z,9.23
2018-04-14T03:41:07.909Z,9.21
2018-04-14T03:42:17.018Z,9.42
2018-04-14T03:43:25.852Z,9.33
2018-04-14T03:44:35.505Z,9.24
2018-04-14T03:45:44.385Z,9.21
2018-04-14T03:46:53.217Z,9.23
2018-04-14T03:48:02.055Z,9.24
2018-04-14T03:49:11.152Z,9.23
2018-04-14T03:50:19.983Z,9.18
2018-04-14T03:51:28.964Z,9.18
2018-04-14T03:52:37.793Z,9.23
2018-04-14T03:53:46.622Z,9.29
2018-04-14T03:54:55.731Z,9.26
2018-04-14T03:56:04.569Z,9.23
2018-04-14T03:57:13.704Z,9.24
2018-04-14T03:58:22.535Z,9.11
2018-04-14T03:59:31.366Z,9.5
2018-04-14T04:00:40.197Z,9.32
2018-04-14T04:01:49.028Z,9.24
2018-04-14T04:02:57.869Z,9.28
2018-04-14T04:04:06.704Z,9.32
2018-04-14T04:05:15.536Z,9.4
2018-04-14T04:06:24.367Z,9.36
2018-04-14T04:07:33.479Z,9.28
2018-04-14T04:08:42.633Z,9.26
2018-04-14T04:09:51.469Z,9.11
2018-04-14T04:11:00.299Z,9.1
2018-04-14T04:12:09.134Z,9.05
2018-04-14T04:13:18.242Z,9.11
2018-04-14T04:14:27.221Z,9.08
2018-04-14T04:15:36.061Z,9.11
2018-04-14T04:16:45.177Z,9.05
2018-04-14T04:17:54.009Z,9.11
2018-04-14T04:19:02.843Z,9.1
2018-04-14T04:20:11.777Z,9.1
2018-04-14T04:21:20.608Z,9.1
2018-04-14T04:22:29.441Z,9.02
2018-04-14T04:23:38.829Z,9.21
2018-04-14T04:24:47.657Z,9.14
2018-04-14T04:25:56.588Z,9.08
2018-04-14T04:27:05.417Z,8.94
2018-04-14T04:28:14.307Z,8.96
2018-04-14T04:29:23.464Z,8.98
2018-04-14T04:30:32.292Z,9.02
2018-04-14T04:31:41.273Z,8.99
2018-04-14T04:32:50.108Z,8.98
2018-04-14T04:33:58.941Z,8.94
2018-04-14T04:35:07.775Z,8.99
2018-04-14T04:36:16.981Z,9.01
2018-04-14T04:37:25.913Z,8.98
2018-04-14T04:38:35.020Z,9.02
2018-04-14T04:39:43.853Z,8.98
2018-04-14T04:40:52.688Z,8.95
2018-04-14T04:42:01.522Z,8.94
2018-04-14T04:43:10.933Z,8.89
2018-04-14T04:44:19.763Z,8.96
2018-04-14T04:45:28.644Z,8.98
2018-04-14T04:46:37.477Z,9.01
2018-04-14T04:47:46.306Z,8.92
2018-04-14T04:48:55.357Z,8.95
2018-04-14T04:50:04.173Z,8.92
2018-04-14T04:51:13.002Z,8.95
2018-04-14T04:52:21.835Z,9.24
2018-04-14T04:53:30.940Z,9.26
2018-04-14T04:54:39.818Z,9.08
2018-04-14T04:55:48.651Z,9.28
2018-04-14T04:56:57.479Z,9.02
2018-04-14T04:58:06.590Z,8.87
2018-04-14T04:59:15.694Z,8.86
2018-04-14T05:00:24.847Z,8.91
2018-04-14T05:01:33.951Z,8.95
2018-04-14T05:02:42.784Z,8.89
2018-04-14T05:03:51.617Z,8.86
2018-04-14T05:05:00.726Z,8.86
2018-04-14T05:06:09.835Z,8.89
2018-04-14T05:07:18.662Z,8.83
2018-04-14T05:08:27.766Z,8.74
2018-04-14T05:09:36.873Z,8.87
2018-04-14T05:10:45.702Z,8.92
2018-04-14T05:11:54.533Z,9.15
2018-04-14T05:13:03.361Z,9.02
2018-04-14T05:14:12.190Z,8.91
2018-04-14T05:15:21.027Z,8.96
2018-04-14T05:16:30.132Z,8.91
2018-04-14T05:17:39.264Z,9.14
2018-04-14T05:18:48.093Z,8.94
2018-04-14T05:19:56.924Z,8.99
2018-04-14T05:21:05.755Z,8.94
2018-04-14T05:22:14.587Z,8.91
2018-04-14T05:23:23.715Z,8.86
2018-04-14T05:24:32.544Z,9.23
2018-04-14T05:25:41.380Z,9.2
2018-04-14T05:26:50.757Z,9.14
2018-04-14T05:27:59.586Z,9.2
2018-04-14T05:29:09.023Z,9.04
2018-04-14T05:30:18.408Z,9.08
2018-04-14T05:31:27.249Z,9.04
2018-04-14T05:32:36.076Z,8.92
2018-04-14T05:33:44.906Z,9.32
2018-04-14T05:34:53.739Z,9.14
2018-04-14T05:36:02.571Z,9.32
2018-04-14T05:37:11.677Z,9.05
2018-04-14T05:38:20.786Z,8.92
2018-04-14T05:39:29.622Z,8.86
2018-04-14T05:40:38.726Z,8.84
2018-04-14T05:41:47.835Z,8.91
2018-04-14T05:42:56.665Z,8.94
2018-04-14T05:44:05.497Z,9.11
2018-04-14T05:45:14.329Z,9.23
2018-04-14T05:46:23.208Z,9.01
2018-04-14T05:47:32.042Z,9.29
2018-04-14T05:48:41.148Z,9.01
2018-04-14T05:49:49.980Z,9.15
2018-04-14T05:50:59.427Z,8.99
2018-04-14T05:52:08.210Z,8.86
2018-04-14T05:53:17.313Z,8.96
2018-04-14T05:54:26.151Z,8.94
2018-04-14T05:55:35.274Z,8.87
2018-04-14T05:56:44.384Z,9.13
2018-04-14T05:57:53.645Z,8.98
2018-04-14T05:59:03.021Z,8.94
2018-04-14T06:00:11.864Z,8.95
2018-04-14T06:01:20.683Z,8.99
2018-04-14T06:02:29.791Z,8.94
2018-04-14T06:03:38.904Z,8.99
2018-04-14T06:04:47.735Z,9.02
2018-04-14T06:05:56.568Z,9.01
2018-04-14T06:07:05.399Z,9.05
2018-04-14T06:08:14.226Z,9.08
2018-04-14T06:09:23.481Z,8.95
2018-04-14T06:10:32.311Z,9.05
2018-04-14T06:11:41.146Z,8.91
2018-04-14T06:12:49.974Z,8.84
2018-04-14T06:13:58.804Z,8.84
2018-04-14T06:15:07.688Z,8.96
2018-04-14T06:16:16.522Z,8.89
2018-04-14T06:17:25.354Z,9.17
2018-04-14T06:18:34.186Z,9.53
2018-04-14T06:19:43.025Z,9.02
2018-04-14T06:20:52.174Z,8.91
2018-04-14T06:22:01.007Z,8.89
2018-04-14T06:23:10.157Z,9.4
2018-04-14T06:24:19.266Z,9.08
2018-04-14T06:25:28.093Z,9.14
2018-04-14T06:26:37.027Z,9.01
2018-04-14T06:27:45.859Z,8.95
2018-04-14T06:28:54.690Z,9.1
2018-04-14T06:30:03.525Z,9.05
2018-04-14T06:31:12.354Z,8.86
2018-04-14T06:32:21.486Z,9.01
2018-04-14T06:33:30.594Z,8.91
2018-04-14T06:34:39.424Z,8.99
2018-04-14T06:35:48.255Z,8.95
2018-04-14T06:36:57.089Z,8.96
2018-04-14T06:38:06.493Z,8.95
2018-04-14T06:39:15.325Z,8.98
2018-04-14T06:40:24.157Z,8.98
2018-04-14T06:41:33.055Z,9.26
2018-04-14T06:42:41.889Z,9.18
2018-04-14T06:43:50.718Z,9.08
2018-04-14T06:44:59.551Z,9.1
2018-04-14T06:46:08.384Z,9.08
2018-04-14T06:47:17.218Z,9.02
2018-04-14T06:48:26.347Z,9.05
2018-04-14T06:49:35.180Z,9.24
2018-04-14T06:50:44.014Z,9.18
2018-04-14T06:51:52.849Z,9.04
2018-04-14T06:53:01.681Z,9.2
2018-04-14T06:54:10.517Z,9.14
2018-04-14T06:55:19.347Z,8.96
2018-04-14T06:56:28.178Z,9.28
2018-04-14T06:57:37.019Z,8.96
2018-04-14T06:58:46.125Z,9.18
2018-04-14T06:59:54.956Z,9.11
2018-04-14T07:01:03.785Z,9.18
2018-04-14T07:02:12.894Z,9.14
2018-04-14T07:03:21.724Z,9.28
2018-04-14T07:04:31.154Z,9.14
2018-04-14T07:05:39.972Z,9.08
2018-04-14T07:06:48.802Z,9.23
2018-04-14T07:07:57.639Z,9.1
2018-04-14T07:09:06.619Z,9.13
2018-04-14T07:10:15.449Z,9.14
2018-04-14T07:11:24.281Z,9.04
2018-04-14T07:12:33.490Z,9.23
2018-04-14T07:13:42.322Z,9.11
2018-04-14T07:14:51.497Z,9.14
2018-04-14T07:16:00.336Z,9.04
2018-04-14T07:17:09.163Z,9.1
2018-04-14T07:18:17.996Z,9.11
2018-04-14T07:19:26.831Z,9.24
2018-04-14T07:20:36.073Z,9.31
2018-04-14T07:21:45.500Z,9.29
2018-04-14T07:22:54.887Z,9.15
2018-04-14T07:24:03.718Z,9.05
2018-04-14T07:25:12.550Z,9.04
2018-04-14T07:26:21.806Z,9.11
2018-04-14T07:27:30.929Z,9.18
2018-04-14T07:28:39.760Z,9.17
2018-04-14T07:29:48.597Z,9.26
2018-04-14T07:30:57.698Z,9.26
2018-04-14T07:32:06.636Z,9.13
2018-04-14T07:33:16.021Z,9.17
2018-04-14T07:34:25.142Z,9.08
2018-04-14T07:35:34.252Z,9.02
2018-04-14T07:36:43.086Z,9.11
2018-04-14T07:37:52.196Z,9.02
2018-04-14T07:39:01.054Z,9.23
2018-04-14T07:40:09.965Z,9.24
2018-04-14T07:41:19.080Z,9.13
2018-04-14T07:42:27.908Z,9.02
2018-04-14T07:43:36.895Z,9.13
2018-04-14T07:44:45.724Z,8.95
2018-04-14T07:45:54.555Z,8.96
2018-04-14T07:47:03.665Z,8.96
2018-04-14T07:48:12.767Z,9.01
2018-04-14T07:49:22.194Z,9.02
2018-04-14T07:50:31.020Z,8.94
2018-04-14T07:51:40.133Z,8.95
2018-04-14T07:52:49.290Z,8.95
2018-04-14T07:53:58.396Z,8.92
2018-04-14T07:55:07.336Z,9.08
2018-04-14T07:56:16.176Z,9.11
2018-04-14T07:57:25.006Z,9.13
2018-04-14T07:58:34.195Z,9.17
2018-04-14T07:59:43.115Z,9.13
2018-04-14T08:01:21.735Z,9.17
2018-04-14T08:02:30.567Z,9.11
2018-04-14T08:03:39.403Z,9.01
2018-04-14T08:04:48.518Z,9.05
2018-04-14T08:05:57.495Z,9.1
2018-04-14T08:07:06.615Z,8.98
2018-04-14T08:08:15.722Z,8.94
2018-04-14T08:09:24.575Z,8.96
2018-04-14T08:10:33.685Z,9.1
2018-04-14T08:11:43.264Z,9.08
2018-04-14T08:12:52.097Z,9.28
2018-04-14T08:14:00.930Z,9.13
2018-04-14T08:15:09.763Z,9.24
2018-04-14T08:16:18.870Z,9.18
2018-04-14T08:17:27.752Z,9.29
2018-04-14T08:18:36.586Z,9.11
2018-04-14T08:19:45.416Z,9.1
2018-04-14T08:20:54.244Z,9.1
2018-04-14T08:22:03.077Z,9.2
2018-04-14T08:23:12.772Z,9.05
2018-04-14T08:24:21.600Z,9.1
2018-04-14T08:25:30.430Z,9.08
2018-04-14T08:26:39.266Z,9.1
2018-04-14T08:27:48.099Z,9.05
2018-04-14T08:28:56.929Z,9.05
2018-04-14T08:30:06.200Z,8.95
2018-04-14T08:31:15.333Z,9.24
2018-04-14T08:32:24.171Z,9.05
2018-04-14T08:33:33.009Z,9.05
2018-04-14T08:34:41.841Z,9.04
2018-04-14T08:35:50.959Z,9.05
2018-04-14T08:37:00.074Z,9.28
2018-04-14T08:38:08.907Z,9.11
2018-04-14T08:39:18.015Z,9.11
2018-04-14T08:40:26.848Z,9.32
2018-04-14T08:41:35.685Z,9.21
2018-04-14T08:42:44.518Z,9.24
2018-04-14T08:43:53.628Z,9.28
2018-04-14T08:45:02.732Z,9.35
2018-04-14T08:46:11.568Z,9.23
2018-04-14T08:47:20.421Z,9.28
2018-04-14T08:48:29.539Z,9.23
2018-04-14T08:49:38.655Z,9.21
2018-04-14T08:50:47.488Z,9.14
2018-04-14T08:51:56.322Z,9.26
2018-04-14T08:53:05.446Z,9.26
2018-04-14T08:54:14.577Z,9.24
2018-04-14T08:55:23.964Z,9.26
2018-04-14T08:56:33.074Z,9.17
2018-04-14T08:57:42.620Z,9.28
2018-04-14T08:58:51.453Z,9.26
2018-04-14T09:00:00.435Z,9.17
2018-04-14T09:01:09.321Z,9.18
2018-04-14T09:02:18.582Z,9.17
2018-04-14T09:03:27.415Z,9.23
2018-04-14T09:04:36.246Z,9.24
2018-04-14T09:05:45.383Z,9.17
2018-04-14T09:06:54.225Z,9.24
2018-04-14T09:08:03.341Z,9.28
2018-04-14T09:09:12.180Z,9.31
2018-04-14T09:10:21.572Z,9.23
2018-04-14T09:11:30.855Z,9.26
2018-04-14T09:12:39.686Z,9.17
2018-04-14T09:13:48.516Z,9.15
2018-04-14T09:14:57.348Z,9.11
2018-04-14T09:16:06.532Z,9.21
2018-04-14T09:17:15.353Z,9.24
2018-04-14T09:18:24.458Z,9.23
2018-04-14T09:19:33.291Z,9.18
2018-04-14T09:20:42.126Z,9.26
2018-04-14T09:21:50.958Z,9.26
2018-04-14T09:23:00.069Z,9.28
2018-04-14T09:24:08.899Z,9.32
2018-04-14T09:25:17.732Z,9.26
2018-04-14T09:26:26.569Z,9.33
2018-04-14T09:27:35.397Z,9.26
2018-04-14T09:28:44.230Z,9.32
2018-04-14T09:29:53.060Z,9.35
2018-04-14T09:31:01.897Z,9.46
2018-04-14T09:32:11.011Z,9.23
2018-04-14T09:33:19.843Z,9.26
2018-04-14T09:34:28.724Z,9.31
2018-04-14T09:35:37.557Z,9.29
2018-04-14T09:36:46.391Z,9.33
2018-04-14T09:37:55.226Z,9.35
2018-04-14T09:39:04.058Z,9.42
2018-04-14T09:40:13.367Z,9.56
2018-04-14T09:41:22.202Z,9.51
2018-04-14T09:42:31.034Z,9.53
2018-04-14T09:43:39.869Z,9.43
2018-04-14T09:44:48.704Z,9.38
2018-04-14T09:45:57.687Z,9.35
2018-04-14T09:47:06.795Z,9.24
2018-04-14T09:48:15.626Z,9.32
2018-04-14T09:49:24.458Z,9.33
2018-04-14T09:50:33.292Z,9.38
2018-04-14T09:51:42.280Z,9.33
2018-04-14T09:52:51.422Z,9.38
2018-04-14T09:54:00.525Z,9.38
2018-04-14T09:55:09.630Z,9.38
2018-04-14T09:56:18.464Z,9.39
2018-04-14T09:57:27.547Z,9.39
2018-04-14T09:58:36.385Z,9.39
2018-04-14T09:59:45.216Z,9.39
2018-04-14T10:00:54.047Z,9.53
2018-04-14T10:02:02.880Z,9.43
2018-04-14T10:03:11.814Z,9.36
2018-04-14T10:04:20.923Z,9.4
2018-04-14T10:05:29.755Z,9.54
2018-04-14T10:06:38.588Z,9.54
2018-04-14T10:07:47.419Z,9.57
2018-04-14T10:08:56.403Z,9.53
2018-04-14T10:10:05.240Z,9.57
2018-04-14T10:11:14.074Z,9.64
2018-04-14T10:12:22.907Z,9.53
2018-04-14T10:13:32.019Z,9.58
2018-04-14T10:14:40.952Z,9.38
2018-04-14T10:15:49.826Z,9.26
2018-04-14T10:16:58.615Z,9.32
2018-04-14T10:18:07.450Z,9.38
2018-04-14T10:19:16.283Z,9.46
2018-04-14T10:20:25.444Z,9.4
2018-04-14T10:21:34.276Z,9.38
2018-04-14T10:22:43.389Z,9.4
2018-04-14T10:23:52.222Z,9.46
2018-04-14T10:25:01.051Z,9.46
2018-04-14T10:26:10.033Z,9.39
2018-04-14T10:27:19.413Z,9.53
2018-04-14T10:28:28.243Z,9.35
2018-04-14T10:29:37.076Z,9.36
2018-04-14T10:30:45.909Z,9.39
2018-04-14T10:31:55.017Z,9.38
2018-04-14T10:33:04.139Z,9.28
2018-04-14T10:34:13.519Z,9.42
2018-04-14T10:35:22.352Z,9.38
2018-04-14T10:36:31.188Z,9.39
2018-04-14T10:37:40.142Z,9.53
2018-04-14T10:38:48.904Z,9.48
2018-04-14T10:39:57.735Z,9.57
2018-04-14T10:41:06.871Z,9.56
2018-04-14T10:42:15.978Z,9.53
2018-04-14T10:43:24.910Z,9.51
2018-04-14T10:44:33.745Z,9.51
2018-04-14T10:45:42.579Z,9.53
2018-04-14T10:46:51.413Z,9.46
2018-04-14T10:48:00.243Z,9.58
2018-04-14T10:49:09.079Z,9.5
2018-04-14T10:50:18.191Z,9.4
2018-04-14T10:51:27.024Z,9.43
2018-04-14T10:52:35.853Z,9.46
2018-04-14T10:53:44.684Z,9.39
2018-04-14T10:54:53.846Z,9.56
2018-04-14T10:56:02.679Z,9.57
2018-04-14T10:57:12.057Z,9.51
2018-04-14T10:58:20.889Z,9.5
2018-04-14T10:59:29.722Z,9.64
2018-04-14T11:00:38.607Z,9.56
2018-04-14T11:01:47.440Z,9.56
2018-04-14T11:02:56.273Z,9.53
2018-04-14T11:04:05.381Z,9.71
2018-04-14T11:05:14.212Z,9.53
2018-04-14T11:06:23.476Z,9.65
2018-04-14T11:07:32.589Z,9.57
2018-04-14T11:08:41.419Z,9.54
2018-04-14T11:09:50.252Z,9.54
2018-04-14T11:10:59.084Z,9.64
2018-04-14T11:12:08.494Z,9.68
2018-04-14T11:13:17.329Z,9.68
2018-04-14T11:14:26.440Z,9.75
2018-04-14T11:15:35.275Z,9.71
2018-04-14T11:16:44.112Z,9.64
2018-04-14T11:17:52.949Z,9.72
2018-04-14T11:19:01.780Z,9.81
2018-04-14T11:20:10.621Z,9.78
2018-04-14T11:21:19.458Z,9.76
2018-04-14T11:22:28.292Z,9.87
2018-04-14T11:23:37.649Z,9.89
2018-04-14T11:24:46.480Z,9.79
2018-04-14T11:25:55.589Z,9.87
2018-04-14T11:27:04.426Z,9.97
2018-04-14T11:28:13.263Z,9.9
2018-04-14T11:29:22.096Z,9.96
2018-04-14T11:30:30.981Z,9.91
2018-04-14T11:31:39.814Z,9.93
2018-04-14T11:32:48.648Z,9.96
2018-04-14T11:33:57.481Z,9.97
2018-04-14T11:35:06.515Z,9.99
2018-04-14T11:36:15.349Z,9.94
2018-04-14T11:37:24.182Z,10.04
2018-04-14T11:38:33.301Z,10.04
2018-04-14T11:39:42.136Z,9.91
2018-04-14T11:40:50.971Z,10.01
2018-04-14T11:41:59.805Z,10.07
2018-04-14T11:43:08.638Z,10.07
2018-04-14T11:44:17.475Z,10.01
2018-04-14T11:45:26.308Z,10.2
2018-04-14T11:46:35.243Z,10.23
2018-04-14T11:47:44.358Z,10.11
2018-04-14T11:48:53.198Z,10.02
2018-04-14T11:50:02.034Z,10.01
2018-04-14T11:51:10.861Z,9.91
2018-04-14T11:52:19.997Z,10.09
2018-04-14T11:53:28.832Z,9.94
2018-04-14T11:54:37.661Z,10.05
2018-04-14T11:55:46.491Z,9.99
2018-04-14T11:56:55.324Z,10.02
2018-04-14T11:58:04.207Z,10.09
2018-04-14T11:59:13.038Z,10.11
2018-04-14T12:00:21.872Z,10.2
2018-04-14T12:01:30.707Z,10.2
2018-04-14T12:02:39.539Z,10.25
2018-04-14T12:03:48.476Z,10.25
2018-04-14T12:04:57.308Z,10.2
2018-04-14T12:06:06.415Z,10.22
2018-04-14T12:07:15.250Z,10.05
2018-04-14T12:08:24.089Z,10.26
2018-04-14T12:09:33.495Z,10.15
2018-04-14T12:10:42.330Z,10.33
2018-04-14T12:11:51.203Z,10.34
2018-04-14T12:13:00.039Z,10.38
2018-04-14T12:14:08.896Z,10.18
2018-04-14T12:15:18.024Z,10.12
2018-04-14T12:16:26.860Z,10.2
2018-04-14T12:17:36.024Z,10.26
2018-04-14T12:18:44.859Z,10.2
2018-04-14T12:19:53.693Z,10.2
2018-04-14T12:21:02.575Z,10.17
2018-04-14T12:22:11.414Z,10.17
2018-04-14T12:23:20.247Z,10.23
2018-04-14T12:24:29.130Z,10.23
2018-04-14T12:25:37.971Z,10.17
2018-04-14T12:26:46.948Z,10.36
2018-04-14T12:27:55.780Z,10.33
2018-04-14T12:29:04.614Z,10.27
2018-04-14T12:30:13.722Z,10.2
2018-04-14T12:31:22.555Z,10.27
2018-04-14T12:32:31.588Z,10.29
2018-04-14T12:33:40.969Z,10.33
2018-04-14T12:34:49.800Z,10.32
2018-04-14T12:35:58.634Z,10.4
2018-04-14T12:37:07.472Z,10.38
2018-04-14T12:38:16.306Z,10.36
2018-04-14T12:39:25.414Z,10.41
2018-04-14T12:40:34.246Z,10.4
2018-04-14T12:41:43.352Z,10.42
2018-04-14T12:42:52.186Z,10.29
2018-04-14T12:44:01.325Z,10.34
2018-04-14T12:45:10.160Z,10.33
2018-04-14T12:46:19.279Z,10.27
2018-04-14T12:47:28.113Z,10.33
2018-04-14T12:48:36.948Z,10.48
2018-04-14T12:49:46.079Z,10.33
2018-04-14T12:50:54.916Z,10.32
2018-04-14T12:52:03.747Z,10.38
2018-04-14T12:53:12.857Z,10.51
2018-04-14T12:54:21.688Z,10.42
2018-04-14T12:55:30.571Z,10.42
2018-04-14T12:56:39.404Z,10.53
2018-04-14T12:57:48.237Z,10.52
2018-04-14T12:58:57.627Z,10.64
2018-04-14T13:00:06.738Z,10.66
2018-04-14T13:01:15.822Z,10.55
2018-04-14T13:02:24.657Z,10.61
2018-04-14T13:03:33.490Z,10.64
2018-04-14T13:04:42.325Z,10.59
2018-04-14T13:05:51.159Z,10.51
2018-04-14T13:07:00.144Z,10.64
2018-04-14T13:08:08.978Z,10.59
2018-04-14T13:09:17.814Z,10.61
2018-04-14T13:10:26.645Z,10.66
2018-04-14T13:11:35.482Z,10.71
2018-04-14T13:12:44.415Z,10.63
2018-04-14T13:13:53.530Z,10.73
2018-04-14T13:15:02.644Z,10.74
2018-04-14T13:16:11.478Z,10.71
2018-04-14T13:17:20.313Z,10.74
2018-04-14T13:18:29.153Z,10.73
2018-04-14T13:19:37.987Z,10.66
2018-04-14T13:20:46.822Z,10.67
2018-04-14T13:21:55.932Z,10.76
2018-04-14T13:23:04.766Z,10.74
2018-04-14T13:24:13.650Z,10.7
2018-04-14T13:25:22.487Z,10.6
2018-04-14T13:26:31.329Z,10.61
2018-04-14T13:27:40.164Z,10.63
2018-04-14T13:28:49.001Z,10.71
2018-04-14T13:29:58.109Z,10.82
2018-04-14T13:31:06.945Z,10.81
2018-04-14T13:32:15.776Z,10.6
2018-04-14T13:33:24.610Z,10.76
2018-04-14T13:34:33.442Z,10.76
2018-04-14T13:35:42.329Z,10.74
2018-04-14T13:36:51.165Z,10.81
2018-04-14T13:37:59.993Z,10.84
2018-04-14T13:39:08.828Z,10.91
2018-04-14T13:40:17.663Z,10.79
2018-04-14T13:41:26.697Z,10.89
2018-04-14T13:42:35.529Z,10.91
2018-04-14T13:43:44.363Z,10.96
2018-04-14T13:44:53.201Z,10.88
2018-04-14T13:46:02.319Z,10.96
2018-04-14T13:47:11.233Z,10.81
2018-04-14T13:48:20.035Z,10.79
2018-04-14T13:49:28.874Z,10.85
2018-04-14T13:50:37.707Z,10.81
2018-04-14T13:51:46.543Z,10.85
2018-04-14T13:52:55.437Z,10.81
2018-04-14T13:54:04.557Z,10.81
2018-04-14T13:55:13.386Z,10.78
2018-04-14T13:56:22.266Z,10.91
2018-04-14T13:57:31.204Z,10.88
2018-04-14T13:59:09.799Z,10.89
2018-04-14T14:00:18.932Z,10.99
2018-04-14T14:01:28.127Z,10.97
2018-04-14T14:02:37.043Z,11.04
2018-04-14T14:03:45.999Z,11.07
2018-04-14T14:04:54.897Z,10.89
2018-04-14T14:06:03.733Z,10.89
2018-04-14T14:07:12.566Z,10.88
2018-04-14T14:08:21.673Z,10.84
2018-04-14T14:09:30.811Z,10.84
2018-04-14T14:10:39.642Z,10.96
2018-04-14T14:11:48.476Z,10.89
2018-04-14T14:12:57.616Z,10.88
2018-04-14T14:14:06.452Z,10.88
2018-04-14T14:15:15.560Z,10.97
2018-04-14T14:16:24.392Z,10.94
2018-04-14T14:17:33.222Z,11.03
2018-04-14T14:18:42.055Z,11.02
2018-04-14T14:19:50.890Z,11.03
2018-04-14T14:20:59.721Z,11.07
2018-04-14T14:22:08.555Z,11.04
2018-04-14T14:23:17.388Z,11.11
2018-04-14T14:24:26.223Z,11.07
2018-04-14T14:25:35.055Z,11.02
2018-04-14T14:26:44.268Z,11.07
2018-04-14T14:27:53.099Z,11.04
2018-04-14T14:29:01.935Z,11.06
2018-04-14T14:30:11.057Z,11.06
2018-04-14T14:31:19.892Z,11.14
2018-04-14T14:32:29.197Z,11.11
2018-04-14T14:33:38.599Z,11.18
2018-04-14T14:34:47.412Z,11.17
2018-04-14T14:35:56.248Z,11.14
2018-04-14T14:37:05.087Z,11.11
2018-04-14T14:38:14.252Z,11.28
2018-04-14T14:39:23.140Z,11.11
2018-04-14T14:40:31.975Z,11.1
2018-04-14T14:41:41.358Z,11.15
2018-04-14T14:42:50.271Z,11.15
2018-04-14T14:43:59.193Z,11.15
2018-04-14T14:45:08.082Z,11.1
2018-04-14T14:46:17.424Z,11.09
2018-04-14T14:47:26.736Z,11.1
2018-04-14T14:48:35.667Z,11.11
2018-04-14T14:49:44.802Z,11.1
2018-04-14T14:50:53.921Z,11.1
2018-04-14T14:52:03.036Z,11.1
2018-04-14T14:53:11.874Z,11.11
2018-04-14T14:54:20.711Z,11.17
2018-04-14T14:55:29.693Z,11.22
2018-04-14T14:56:38.526Z,11.15
2018-04-14T14:57:47.358Z,11.17
2018-04-14T14:58:56.192Z,11.15
2018-04-14T15:00:05.305Z,11.15
2018-04-14T15:01:14.295Z,11.19
2018-04-14T15:02:23.129Z,11.14
2018-04-14T15:03:31.964Z,11.24
2018-04-14T15:04:40.797Z,11.27
2018-04-14T15:05:49.631Z,11.18
2018-04-14T15:06:58.571Z,11.17
2018-04-14T15:08:07.679Z,11.09
2018-04-14T15:09:16.513Z,11.18
2018-04-14T15:10:25.344Z,11.15
2018-04-14T15:11:34.235Z,11.22